Flight Track Log - Related Links

Times and Time Zones

All times are in EDT time to prevent confusion due to time zone crossing. See the C-GECT flight status page for this flight to view local times or setup timezone preferences in your user account.

Time Position Orientation Groundspeed Altitude Reporting Facility
EDT Latitude Longitude Course Direction KTS MPH feet Rate Location/Type
Sat 11:13:57 AM 43.6333 -79.3333 65° Northeast 120 138 1,500  Level Toronto Center
Sat 11:14:57 AM 43.6500 -79.2833 65° Northeast 150 173 2,700 1,200 Climbing Toronto Center
Sat 11:15:57 AM 43.6833 -79.2333 47° Northeast 160 184 3,900 1,250 Climbing Toronto Center
Sat 11:16:57 AM 43.7000 -79.1667 71° East 160 184 5,200 1,300 Climbing Toronto Center
Sat 11:17:00 AM 43.8288 -78.8636 65° Northeast  Level FlightAware Approximate
Sat 11:17:57 AM 43.7167 -79.1333 55° Northeast 160 184 6,500  Level Toronto Center
Sat 11:18:00 AM 43.8578 -78.7678 67° East  Level FlightAware Approximate
Sat 11:18:57 AM 43.7500 -79.0500 61° Northeast 170 196 7,600  Level Toronto Center
Sat 11:19:00 AM 43.8875 -78.6708 65° Northeast  Level FlightAware Approximate
Sat 11:19:57 AM 43.7667 -79.0167 55° Northeast 180 207 8,900  Level Toronto Center
Sat 11:20:57 AM 43.8000 -78.9333 61° Northeast 190 219 10,100 1,250 Climbing Toronto Center
Sat 11:21:57 AM 43.8167 -78.8667 71° East 190 219 11,400 1,200 Climbing Toronto Center
Sat 11:22:57 AM 43.8333 -78.8000 71° East 190 219 12,500 1,200 Climbing Toronto Center
Sat 11:23:57 AM 43.8667 -78.7333 55° Northeast 200 230 13,800 1,250 Climbing Toronto Center
Sat 11:24:57 AM 43.9000 -78.6667 55° Northeast 190 219 15,000 600 Climbing Toronto Center
Sat 11:25:57 AM 43.9167 -78.5833 74° East 210 242 15,000 350 Level Toronto Center
Sat 11:26:57 AM 43.9500 -78.5167 55° Northeast 250 288 15,700 800 Climbing Toronto Center
Sat 11:27:57 AM 43.9667 -78.4333 74° East 240 276 16,600 1,000 Climbing Toronto Center
Sat 11:28:57 AM 44.0000 -78.3500 61° Northeast 230 265 17,700 1,150 Climbing Toronto Center
Sat 11:29:57 AM 44.0333 -78.2833 55° Northeast 210 242 18,900 1,000 Climbing Toronto Center
Sat 11:30:57 AM 44.0500 -78.2167 71° East 200 230 19,700 700 Climbing Toronto Center
Sat 11:31:57 AM 44.0833 -78.1500 55° Northeast 210 242 20,300 700 Climbing Toronto Center
Sat 11:32:57 AM 44.1167 -78.0500 65° Northeast 220 253 21,100 750 Climbing Toronto Center
Sat 11:33:57 AM 44.1500 -77.9833 55° Northeast 220 253 21,800 650 Climbing Toronto Center
Sat 11:34:57 AM 44.1667 -77.9167 71° East 220 253 22,400 600 Climbing Toronto Center
Sat 11:35:57 AM 44.2000 -77.8167 65° Northeast 230 265 23,000 550 Climbing Toronto Center
Sat 11:36:57 AM 44.2167 -77.7500 71° East 230 265 23,500 550 Climbing Toronto Center
Sat 11:37:57 AM 44.2500 -77.6500 65° Northeast 230 265 24,100 550 Climbing Toronto Center
Sat 11:38:57 AM 44.2667 -77.5667 74° East 240 276 24,600 500 Climbing Toronto Center
Sat 11:39:57 AM 44.3000 -77.4667 65° Northeast 240 276 25,100 450 Climbing Toronto Center
Sat 11:40:57 AM 44.3167 -77.4000 71° East 240 276 25,500 350 Climbing Toronto Center
Sat 11:41:57 AM 44.3333 -77.3000 77° East 240 276 25,800 400 Climbing Toronto Center
Sat 11:42:57 AM 44.3500 -77.2000 77° East 250 288 26,300 400 Climbing Toronto Center
Sat 11:43:57 AM 44.3833 -77.1167 61° Northeast 250 288 26,600 350 Climbing Toronto Center
Sat 11:44:57 AM 44.3833 -77.0167 90° East 240 276 27,000 200 Climbing Toronto Center
Sat 11:45:57 AM 44.4000 -76.9333 74° East 250 288 27,000  Level Toronto Center
Sat 11:46:57 AM 44.4167 -76.8333 77° East 260 299 27,000  Level Toronto Center
Sat 11:47:57 AM 44.4167 -76.7167 90° East 270 311 27,000  Level Toronto Center
Sat 11:48:57 AM 44.4167 -76.6167 90° East 280 322 27,000  Level Toronto Center
Sat 11:49:57 AM 44.4333 -76.5000 79° East 280 322 27,000  Level Toronto Center
Sat 11:51:24 AM 44.4500 -76.3667 80° East 280 322 27,000  Level Montreal Center
Sat 11:52:24 AM 44.4500 -76.2667 90° East 280 322 27,000  Level Montreal Center
Sat 11:53:24 AM 44.4667 -76.1500 79° East 290 334 27,000  Level Montreal Center
Sat 11:54:24 AM 44.5000 -76.0667 61° Northeast 290 334 27,000  Level Montreal Center
Sat 11:55:24 AM 44.5333 -75.9500 68° East 290 334 27,000  Level Montreal Center
Sat 11:56:24 AM 44.5667 -75.8500 65° Northeast 290 334 27,000  Level Montreal Center
Sat 11:57:24 AM 44.6000 -75.7333 68° East 290 334 27,000  Level Montreal Center
Sat 11:58:24 AM 44.6333 -75.6333 65° Northeast 290 334 27,000  Level Montreal Center
Sat 11:59:24 AM 44.6667 -75.5167 68° East 290 334 27,000  Level Montreal Center
Sat 12:00:24 PM 44.7000 -75.4333 61° Northeast 290 334 27,000  Level Montreal Center
Sat 12:01:24 PM 44.7333 -75.3167 68° East 290 334 27,000  Level Montreal Center
Sat 12:02:24 PM 44.7500 -75.1833 80° East 300 345 27,000  Level Montreal Center
Sat 12:03:24 PM 44.7833 -75.1000 61° Northeast 290 334 27,000  Level Montreal Center
Sat 12:04:24 PM 44.8167 -75.0000 65° Northeast 290 334 27,000  Level Montreal Center
Sat 12:05:24 PM 44.8500 -74.8833 68° East 290 334 27,000  Level Montreal Center
Sat 12:06:24 PM 44.8667 -74.7667 79° East 290 334 27,000  Level Montreal Center
Sat 12:07:24 PM 44.9000 -74.6667 65° Northeast 290 334 27,000  Level Montreal Center
Sat 12:08:24 PM 44.9333 -74.5500 68° East 290 334 27,000  Level Montreal Center
Sat 12:09:24 PM 44.9667 -74.4500 65° Northeast 290 334 27,000  Level Montreal Center
Sat 12:10:24 PM 44.9833 -74.3333 79° East 290 334 27,000  Level Montreal Center
Sat 12:11:24 PM 45.0000 -74.2167 79° East 280 322 27,000  Level Montreal Center
Sat 12:12:24 PM 44.9833 -74.1167 103° East 280 322 27,000  Level Montreal Center
Sat 12:13:24 PM 45.0000 -74.0000 79° East 280 322 27,000  Level Montreal Center
Sat 12:14:24 PM 45.0000 -73.9000 90° East 280 322 27,000  Level Montreal Center
Sat 12:15:24 PM 45.0000 -73.7833 90° East 280 322 27,000  Level Montreal Center
Sat 12:16:24 PM 45.0167 -73.6667 79° East 280 322 27,000  Level Montreal Center
Sat 12:17:24 PM 45.0167 -73.5833 90° East 280 322 27,000  Level Montreal Center
Sat 12:18:24 PM 45.0167 -73.4500 90° East 270 311 27,000  Level Montreal Center
Sat 12:19:24 PM 45.0167 -73.3667 90° East 280 322 27,000  Level Montreal Center
Sat 12:20:24 PM 45.0167 -73.2500 90° East 270 311 27,000  Level Montreal Center
Sat 12:21:24 PM 45.0167 -73.1333 90° East 280 322 27,000  Level Montreal Center
Sat 12:22:24 PM 45.0333 -73.0000 80° East 280 322 27,000  Level Montreal Center
Sat 12:23:24 PM 45.0333 -72.9167 90° East 280 322 27,000  Level Montreal Center
Sat 12:24:24 PM 45.0333 -72.8000 90° East 280 322 27,000  Level Montreal Center
Sat 12:25:24 PM 45.0333 -72.7000 90° East 280 322 27,000  Level Montreal Center
Sat 12:26:24 PM 45.0333 -72.5833 90° East 280 322 27,000  Level Montreal Center
Sat 12:27:24 PM 45.0333 -72.4667 90° East 280 322 27,000  Level Montreal Center
Sat 12:28:24 PM 45.0333 -72.3667 90° East 280 322 27,000  Level Montreal Center
Sat 12:28:59 PM 45.0467 -72.3256 65° Northeast 276 318 27,000  Level Boston Center
Sat 12:30:00 PM 45.0506 -72.2167 87° East 271 312 27,000  Level Boston Center
Sat 12:31:00 PM 45.0503 -72.1053 90° East 271 312 27,000  Level Boston Center
Sat 12:31:59 PM 45.0522 -71.9964 89° East 271 312 27,000  Level Boston Center
Sat 12:32:59 PM 45.0536 -71.8847 89° East 271 312 27,000  Level Boston Center
Sat 12:33:59 PM 45.0572 -71.7761 87° East 271 312 27,000  Level Boston Center
Sat 12:36:00 PM 45.0558 -71.5556 90° East 271 312 27,000  Level Boston Center
Sat 12:36:59 PM 45.0592 -71.4439 88° East 271 312 27,000  Level Boston Center
Sat 12:37:59 PM 45.0581 -71.3325 91° East 271 312 27,000  Level Boston Center
Sat 12:38:59 PM 45.0611 -71.2236 88° East 271 312 27,000 248 Level Boston Center
Sat 12:40:00 PM 45.0536 -71.1061 95° East 271 312 27,500 406 Climbing Boston Center
Sat 12:41:12 PM 45.0567 -71.0033 88° East 266 306 27,900 231 Climbing Boston Center
Sat 12:42:10 PM 45.0569 -70.8769 90° East 266 306 28,000 51 Climbing Boston Center
Sat 12:43:10 PM 45.0561 -70.8064 91° East 266 306 28,000  Level Boston Center
Sat 12:44:11 PM 45.0583 -70.6769 89° East 266 306 28,000  Level Boston Center
Sat 12:45:12 PM 45.0564 -70.5625 91° East 273 314 28,000  Level Boston Center
Sat 12:46:12 PM 45.0567 -70.4539 90° East 273 314 28,000  Level Boston Center
Sat 12:47:12 PM 45.0569 -70.3422 90° East 273 314 28,000  Level Boston Center
Sat 12:48:10 PM 45.0569 -70.2275 90° East 273 314 28,000  Level Boston Center
Sat 12:49:22 PM 45.0567 -70.1189 90° East 278 320 28,000  Level Boston Center
Sat 12:50:23 PM 45.0561 -69.9808 90° East 278 320 28,000  Level Boston Center
Sat 12:51:23 PM 45.0558 -69.8719 90° East 278 320 28,000  Level Boston Center
Sat 12:52:23 PM 45.0553 -69.7575 90° East 283 326 28,000  Level Boston Center
Sat 12:53:24 PM 45.0547 -69.6458 90° East 283 326 28,000  Level Boston Center
Sat 12:54:22 PM 45.0539 -69.5311 91° East 283 326 28,000  Level Boston Center
Sat 12:55:22 PM 45.0528 -69.4078 91° East 288 331 28,000  Level Boston Center
Sat 12:56:23 PM 45.0497 -69.2933 92° East 288 331 28,000  Level Boston Center
Sat 12:57:23 PM 45.0489 -69.1817 91° East 288 331 28,000 -50 Level Boston Center
Sat 12:58:22 PM 45.0475 -69.0672 91° East 288 331 27,900 -303 Descending Boston Center
Sat 12:59:22 PM 45.0464 -68.9525 91° East 288 331 27,400 -446 Descending Boston Center
Sat 01:00:23 PM 45.0447 -68.8322 91° East 293 337 27,000 -198 Descending Boston Center
Sat 01:01:23 PM 45.0431 -68.7147 91° East 293 337 27,000  Level Boston Center
Sat 01:02:23 PM 45.0392 -68.6003 93° East 288 331 27,000  Level Boston Center
Sat 01:03:24 PM 45.0375 -68.4858 91° East 288 331 27,000  Level Boston Center
Sat 01:04:23 PM 45.0356 -68.3686 91° East 288 331 27,000  Level Boston Center
Sat 01:05:23 PM 45.0336 -68.2569 91° East 288 331 27,000  Level Boston Center
Sat 01:06:24 PM 45.0314 -68.1425 92° East 288 331 27,000  Level Boston Center
Sat 01:07:25 PM 45.0292 -68.0250 91° East 288 331 27,000  Level Boston Center
Sat 01:08:23 PM 45.0269 -67.9106 92° East 288 331 27,000  Level Boston Center
Sat 01:09:23 PM 45.0244 -67.7961 92° East 288 331 27,000  Level Boston Center
Sat 01:10:23 PM 45.0206 -67.7025 93° East 288 331 27,000  Level Boston Center
Sat 01:11:24 PM 45.0167 -67.5589 92° East 288 331 27,000  Level Boston Center
Sat 01:12:24 PM 45.0139 -67.4417 92° East 288 331 27,000  Level Boston Center
Sat 01:13:22 PM 45.0108 -67.3242 92° East 288 331 27,000  Level Boston Center
Sat 01:14:22 PM 45.0056 -67.2072 94° East 293 337 27,000  Level Boston Center
Sat 01:15:23 PM 45.0022 -67.0900 92° East 293 337 27,000  Level Boston Center
Sat 01:16:24 PM 44.9986 -66.9697 92° East 293 337 27,000  Level Boston Center
Sat 01:17:31 PM 44.9833 -66.8333 99° East 300 345 27,000  Level Moncton Center
Sat 01:18:31 PM 44.9833 -66.7167 90° East 300 345 27,000  Level Moncton Center
Sat 01:19:31 PM 44.9667 -66.6000 101° East 300 345 27,000  Level Moncton Center
Sat 01:20:31 PM 44.9667 -66.4833 90° East 300 345 27,000  Level Moncton Center
Sat 01:21:31 PM 44.9500 -66.3667 101° East 310 357 27,000  Level Moncton Center
Sat 01:22:31 PM 44.9500 -66.2333 90° East 310 357 27,000  Level Moncton Center
Sat 01:23:31 PM 44.9667 -66.1000 80° East 310 357 27,000  Level Moncton Center
Sat 01:24:31 PM 44.9500 -65.9833 101° East 310 357 27,000  Level Moncton Center
Sat 01:25:31 PM 44.9500 -65.8667 90° East 310 357 27,000  Level Moncton Center
Sat 01:26:31 PM 44.9333 -65.7500 101° East 310 357 27,000  Level Moncton Center
Sat 01:27:31 PM 44.9333 -65.6333 90° East 310 357 27,000  Level Moncton Center
Sat 01:28:31 PM 44.9333 -65.5000 90° East 310 357 27,000  Level Moncton Center
Sat 01:29:31 PM 44.9167 -65.3833 101° East 310 357 27,000 -50 Level Moncton Center
Sat 01:30:31 PM 44.9167 -65.2500 90° East 310 357 26,900 -350 Descending Moncton Center
Sat 01:31:31 PM 44.9000 -65.1333 101° East 320 368 26,300 -750 Descending Moncton Center
Sat 01:32:31 PM 44.9000 -65.0167 90° East 330 380 25,400 -1,150 Descending Moncton Center
Sat 01:33:31 PM 44.9000 -64.8667 90° East 330 380 24,000 -1,400 Descending Moncton Center
Sat 01:34:31 PM 44.9000 -64.7500 90° East 330 380 22,600 -1,500 Descending Moncton Center
Sat 01:35:31 PM 44.9000 -64.6167 90° East 330 380 21,000 -1,550 Descending Moncton Center
Sat 01:36:31 PM 44.9000 -64.4833 90° East 330 380 19,500 -1,500 Descending Moncton Center
Sat 01:37:31 PM 44.9000 -64.3667 90° East 320 368 18,000 -1,500 Descending Moncton Center
Sat 01:38:31 PM 44.9000 -64.2333 90° East 310 357 16,500 -1,500 Descending Moncton Center
Sat 01:39:31 PM 44.9000 -64.1167 90° East 310 357 15,000 -1,550 Descending Moncton Center
Sat 01:40:31 PM 44.9167 -63.9667 81° East 320 368 13,400 -1,500 Descending Moncton Center
Sat 01:41:31 PM 44.9167 -63.8500 90° East 320 368 12,000 -1,450 Descending Moncton Center
Sat 01:42:31 PM 44.9333 -63.7333 79° East 310 357 10,500 -1,550 Descending Moncton Center
Sat 01:43:31 PM 44.9500 -63.6167 79° East 300 345 8,900 -1,550 Descending Moncton Center
Sat 01:44:31 PM 44.9833 -63.5167 65° Northeast 280 322 7,400 -1,700 Descending Moncton Center
Sat 01:45:31 PM 45.0333 -63.4667 35° Northeast 270 311 5,500 -1,900 Descending Moncton Center
Sat 01:46:31 PM 45.1000 -63.4000 35° Northeast 240 276 3,600 -1,550 Descending Moncton Center
Sat 01:47:31 PM 45.0833 -63.3333 109° East 210 242 2,400 -600 Descending Moncton Center
Sat 01:48:31 PM 45.0333 -63.3333 180° South 160 184 2,400  Level Moncton Center
Sat 01:49:31 PM 45.0000 -63.3833 227° Southwest 140 161 2,400  Level Moncton Center
Sat 01:50:31 PM 44.9667 -63.4000 199° South 150 173 2,400 -300 Level Moncton Center
Sat 01:51:31 PM 44.9333 -63.4333 215° Southwest 130 150 1,800 -600 Descending Moncton Center
Sat 01:52:31 PM 44.9000 -63.4500 200° South 120 138 1,200 -600 Descending Moncton Center
Sat 01:53:31 PM 44.8833 -63.4833 235° Southwest 110 127 600 -400 Descending Moncton Center
Sat 01:54:31 PM 44.8500 -63.5000 200° South 110 127 400 -200 Descending Moncton Center

Login

Don't have an account? Register now (free) for customized features, flight alerts, and more!